Southwest Washington Regional Airport Kelso US
ICAO: KKLS
IATA: KLS
Category: Medium
Scheduled Services: No

Elevation: 20 ft
TransAlt. 18000 ft.

Airport Communications:
AWOS 3:135.075
SEATTLE CNTR:124.2
SEATTLE RDO:122.25
CTAF/UNICOM:122.8

KKLS Zoom In..

If you have problems with the map follow the link
https://www.worldairports.se/pages/airport.php?
ICAO=KKLS

Runways:

(A) RW 12 length 4391 ft width 100 ft
---- / hdg 123

(B) RW 30 length 4391 ft width 100 ft
---- / hdg 303

Location; KKLS
Day. 20 / Time. 20.56 Zulu
* Altimeter: 29.84
* Temperature: 07° c. 44.6°f.
* Wind from: 270° Speed 05 kn.
Dewpoint: 03° c.
Visibility: 10 Statute Miles.
Clouds: Scattered 3800 ft.
Clouds: Broken 4500 ft.

KKLS 202056Z AUTO 27005KT 10SM SCT038 BKN045 07/03 A2984 RMK AO2 SLP109 T00720028 58011


Wind From 270°
Speed 05 kn.

 
 
jpsmedia.com for Web Design worldairports.se 2019   terms of use